createdAt,value
2022-08-03T00:02:20.186Z,19.30
2022-08-03T00:04:48.241Z,19.30
2022-08-03T00:07:16.603Z,19.20
2022-08-03T00:09:44.969Z,19.20
2022-08-03T00:12:13.091Z,19.10
2022-08-03T00:14:42.363Z,19.10
2022-08-03T00:17:10.587Z,19.00
2022-08-03T00:19:39.874Z,19.00
2022-08-03T00:22:07.823Z,18.90
2022-08-03T00:24:36.331Z,19.00
2022-08-03T00:27:04.543Z,19.00
2022-08-03T00:29:32.489Z,19.00
2022-08-03T00:32:00.757Z,18.90
2022-08-03T00:34:36.173Z,18.80
2022-08-03T00:37:19.291Z,18.80
2022-08-03T00:39:48.097Z,18.80
2022-08-03T00:42:16.619Z,18.80
2022-08-03T00:44:45.795Z,18.70
2022-08-03T00:47:13.764Z,18.70
2022-08-03T00:49:42.560Z,18.70
2022-08-03T00:52:12.021Z,18.60
2022-08-03T00:54:41.558Z,18.60
2022-08-03T00:57:09.962Z,18.50
2022-08-03T00:59:39.596Z,18.40
2022-08-03T01:02:07.641Z,18.40
2022-08-03T01:04:35.642Z,18.30
2022-08-03T01:07:11.113Z,18.30
2022-08-03T01:09:50.942Z,18.30
2022-08-03T01:12:27.696Z,18.20
2022-08-03T01:15:03.807Z,18.20
2022-08-03T01:17:38.203Z,18.20
2022-08-03T01:20:09.370Z,18.10
2022-08-03T01:23:28.955Z,18.10
2022-08-03T01:26:30.550Z,18.00
2022-08-03T01:29:08.666Z,17.90
2022-08-03T01:33:02.618Z,17.90
2022-08-03T01:34:36.530Z,17.90
2022-08-03T01:37:07.242Z,17.90
2022-08-03T01:39:38.149Z,17.90
2022-08-03T01:42:08.566Z,18.00
2022-08-03T01:44:41.528Z,18.00
2022-08-03T01:47:12.726Z,18.00
2022-08-03T01:49:45.080Z,18.00
2022-08-03T01:52:18.350Z,18.00
2022-08-03T01:54:49.682Z,18.00
2022-08-03T01:57:18.706Z,17.90
2022-08-03T01:59:50.162Z,17.90
2022-08-03T02:02:34.227Z,17.90
2022-08-03T02:05:05.458Z,17.80
2022-08-03T02:07:40.796Z,17.80
2022-08-03T02:10:10.398Z,17.80
2022-08-03T02:12:39.783Z,17.80
2022-08-03T02:15:08.916Z,17.80
2022-08-03T02:17:40.402Z,17.80
2022-08-03T02:20:11.878Z,17.80
2022-08-03T02:22:42.481Z,17.70
2022-08-03T02:25:11.852Z,17.60
2022-08-03T02:27:44.083Z,17.60
2022-08-03T02:30:14.843Z,17.50
2022-08-03T02:32:55.554Z,17.50
2022-08-03T02:35:27.079Z,17.50
2022-08-03T02:38:00.783Z,17.50
2022-08-03T02:40:31.224Z,17.50
2022-08-03T02:43:03.560Z,17.40
2022-08-03T02:45:36.951Z,17.50
2022-08-03T02:48:07.814Z,17.50
2022-08-03T02:50:36.228Z,17.60
2022-08-03T02:53:05.400Z,17.60
2022-08-03T02:55:36.880Z,17.50
2022-08-03T02:58:13.048Z,17.50
2022-08-03T03:00:42.317Z,17.40
2022-08-03T03:03:12.506Z,17.40
2022-08-03T03:05:56.433Z,17.30
2022-08-03T03:08:28.692Z,17.20
2022-08-03T03:10:59.125Z,17.20
2022-08-03T03:13:29.131Z,17.20
2022-08-03T03:16:00.692Z,17.10
2022-08-03T03:18:32.008Z,17.10
2022-08-03T03:21:02.022Z,17.10
2022-08-03T03:23:31.634Z,17.10
2022-08-03T03:26:02.357Z,17.10
2022-08-03T03:28:31.495Z,17.10
2022-08-03T03:30:59.887Z,17.10
2022-08-03T03:33:28.666Z,17.00
2022-08-03T03:35:59.543Z,17.00
2022-08-03T03:38:27.810Z,17.00
2022-08-03T03:40:56.445Z,17.00
2022-08-03T03:43:25.619Z,17.00
2022-08-03T03:45:53.969Z,17.00
2022-08-03T03:48:22.292Z,17.00
2022-08-03T03:50:51.280Z,17.00
2022-08-03T03:53:21.044Z,16.90
2022-08-03T03:56:02.208Z,16.80
2022-08-03T03:58:32.560Z,16.80
2022-08-03T04:01:01.031Z,16.80
2022-08-03T04:03:29.418Z,16.80
2022-08-03T04:06:15.562Z,16.80
2022-08-03T04:09:13.541Z,16.90
2022-08-03T04:11:45.012Z,17.00
2022-08-03T04:14:15.587Z,17.00
2022-08-03T04:16:47.246Z,17.10
2022-08-03T04:19:23.095Z,17.20
2022-08-03T04:21:56.972Z,17.20
2022-08-03T04:24:31.543Z,17.30
2022-08-03T04:27:01.832Z,17.30
2022-08-03T04:29:31.868Z,17.30
2022-08-03T04:32:03.080Z,17.30
2022-08-03T04:34:31.527Z,17.30
2022-08-03T04:37:02.486Z,17.30
2022-08-03T04:39:33.793Z,17.40
2022-08-03T04:42:07.866Z,17.40
2022-08-03T04:44:40.411Z,17.50
2022-08-03T04:47:09.209Z,17.60
2022-08-03T04:49:39.228Z,18.20
2022-08-03T04:52:09.862Z,19.40
2022-08-03T04:54:43.005Z,21.10
2022-08-03T04:57:22.370Z,22.70
2022-08-03T04:59:59.623Z,24.30
2022-08-03T05:02:30.741Z,25.70
2022-08-03T05:04:58.956Z,27.00
2022-08-03T05:07:35.584Z,28.20
2022-08-03T05:10:14.825Z,29.20
2022-08-03T05:12:45.906Z,30.00
2022-08-03T05:15:14.180Z,30.60
2022-08-03T05:17:42.730Z,31.30
2022-08-03T05:20:11.812Z,32.00
2022-08-03T05:22:39.881Z,32.40
2022-08-03T05:25:09.602Z,32.80
2022-08-03T05:27:45.429Z,33.10
2022-08-03T05:30:31.639Z,33.10
2022-08-03T05:33:02.558Z,32.70
2022-08-03T05:36:02.813Z,31.80
2022-08-03T05:38:24.301Z,30.90
2022-08-03T05:41:21.432Z,29.90
2022-08-03T05:43:47.719Z,29.10
2022-08-03T05:46:16.396Z,28.40
2022-08-03T05:48:44.389Z,28.00
2022-08-03T05:51:12.577Z,27.90
2022-08-03T05:53:41.066Z,27.90
2022-08-03T05:56:13.907Z,27.80
2022-08-03T05:58:44.377Z,27.60
2022-08-03T06:01:12.436Z,27.40
2022-08-03T06:03:40.561Z,27.30
2022-08-03T06:06:08.650Z,27.20
2022-08-03T06:08:36.836Z,27.10
2022-08-03T06:11:04.887Z,27.10
2022-08-03T06:13:34.528Z,27.20
2022-08-03T06:16:02.680Z,27.30
2022-08-03T06:18:30.803Z,27.40
2022-08-03T06:20:58.759Z,27.60
2022-08-03T06:23:53.074Z,27.80
2022-08-03T06:26:21.967Z,28.00
2022-08-03T06:28:53.707Z,28.20
2022-08-03T06:31:23.901Z,28.40
2022-08-03T06:34:33.405Z,28.50
2022-08-03T06:36:40.460Z,28.80
2022-08-03T06:39:08.664Z,29.20
2022-08-03T06:41:37.488Z,29.30
2022-08-03T06:44:07.593Z,29.50
2022-08-03T06:46:35.788Z,29.70
2022-08-03T06:49:03.831Z,29.90
2022-08-03T06:52:03.329Z,30.20
2022-08-03T06:54:22.173Z,30.50
2022-08-03T06:56:50.262Z,30.90
2022-08-03T07:00:10.409Z,31.20
2022-08-03T07:02:09.715Z,31.50
2022-08-03T07:04:37.777Z,31.70
2022-08-03T07:07:05.819Z,32.00
2022-08-03T07:09:33.859Z,32.10
2022-08-03T07:12:02.379Z,32.50
2022-08-03T07:14:31.689Z,32.70
2022-08-03T07:16:59.710Z,32.70
2022-08-03T07:19:27.657Z,33.00
2022-08-03T07:21:56.306Z,33.10
2022-08-03T07:24:30.179Z,33.50
2022-08-03T07:26:58.166Z,33.90
2022-08-03T07:29:26.159Z,34.30
2022-08-03T07:31:55.465Z,34.50
2022-08-03T07:34:23.440Z,34.40
2022-08-03T07:36:51.444Z,34.10
2022-08-03T07:39:19.436Z,34.20
2022-08-03T07:41:50.164Z,34.70
2022-08-03T07:44:18.621Z,35.00
2022-08-03T07:46:46.911Z,34.80
2022-08-03T07:49:16.301Z,34.80
2022-08-03T07:51:44.413Z,35.00
2022-08-03T07:54:12.413Z,35.10
2022-08-03T07:56:40.654Z,35.30
2022-08-03T07:59:08.612Z,35.30
2022-08-03T08:01:38.006Z,35.30
2022-08-03T08:04:06.281Z,35.10
2022-08-03T08:06:35.673Z,35.20
2022-08-03T08:09:03.683Z,35.50
2022-08-03T08:11:31.683Z,35.90
2022-08-03T08:14:02.692Z,35.90
2022-08-03T08:16:30.716Z,36.10
2022-08-03T08:18:58.697Z,35.80
2022-08-03T08:21:26.714Z,35.90
2022-08-03T08:24:18.216Z,36.30
2022-08-03T08:26:47.701Z,36.30
2022-08-03T08:29:15.758Z,36.40
2022-08-03T08:31:43.693Z,36.50
2022-08-03T08:34:11.670Z,35.90
2022-08-03T08:36:39.635Z,35.70
2022-08-03T08:39:07.586Z,35.90
2022-08-03T08:41:37.044Z,35.60
2022-08-03T08:44:08.090Z,35.70
2022-08-03T08:46:36.353Z,36.00
2022-08-03T08:49:05.251Z,36.30
2022-08-03T08:51:54.449Z,36.00
2022-08-03T08:54:27.727Z,35.80
2022-08-03T08:57:03.047Z,35.40
2022-08-03T08:59:48.023Z,35.00
2022-08-03T09:02:17.867Z,34.90
2022-08-03T09:04:48.795Z,34.60
2022-08-03T09:07:20.464Z,34.50
2022-08-03T09:10:11.367Z,34.50
2022-08-03T09:12:43.897Z,34.60
2022-08-03T09:15:22.985Z,34.80
2022-08-03T09:17:52.768Z,34.80
2022-08-03T09:20:21.982Z,34.80
2022-08-03T09:22:54.809Z,35.00
2022-08-03T09:25:29.657Z,35.00
2022-08-03T09:28:06.717Z,35.40
2022-08-03T09:30:35.475Z,35.50
2022-08-03T09:33:04.569Z,35.40
2022-08-03T09:35:53.094Z,35.30
2022-08-03T09:38:26.128Z,35.50
2022-08-03T09:40:59.502Z,35.30
2022-08-03T09:43:46.677Z,35.30
2022-08-03T09:46:14.669Z,35.40
2022-08-03T09:48:42.598Z,35.30
2022-08-03T09:51:12.523Z,35.50
2022-08-03T09:53:57.224Z,35.60
2022-08-03T09:56:42.501Z,35.60
2022-08-03T09:59:12.587Z,35.30
2022-08-03T10:01:42.538Z,35.20
2022-08-03T10:04:16.877Z,35.00
2022-08-03T10:06:46.190Z,34.90
2022-08-03T10:09:15.910Z,34.70
2022-08-03T10:11:46.848Z,34.50
2022-08-03T10:14:19.912Z,34.50
2022-08-03T10:16:49.504Z,34.60
2022-08-03T10:19:18.173Z,34.60
2022-08-03T10:21:50.450Z,34.50
2022-08-03T10:24:25.076Z,34.30
2022-08-03T10:26:54.656Z,34.20
2022-08-03T10:29:28.014Z,34.20
2022-08-03T10:31:59.529Z,34.20
2022-08-03T10:34:30.057Z,34.40
2022-08-03T10:37:01.049Z,34.60
2022-08-03T10:39:31.053Z,34.80
2022-08-03T10:42:00.025Z,34.90
2022-08-03T10:44:38.195Z,34.90
2022-08-03T10:47:06.736Z,34.70
2022-08-03T10:49:35.746Z,34.60
2022-08-03T10:52:12.772Z,34.60
2022-08-03T10:55:11.121Z,34.70
2022-08-03T10:57:48.830Z,34.50
2022-08-03T11:00:20.267Z,34.70
2022-08-03T11:03:09.603Z,34.90
2022-08-03T11:05:39.974Z,35.10
2022-08-03T11:08:26.530Z,35.30
2022-08-03T11:10:56.688Z,35.40
2022-08-03T11:13:28.247Z,35.50
2022-08-03T11:16:00.129Z,35.60
2022-08-03T11:18:30.688Z,35.40
2022-08-03T11:21:00.106Z,35.40
2022-08-03T11:24:03.404Z,35.20
2022-08-03T11:26:34.992Z,35.10
2022-08-03T11:29:30.110Z,35.00
2022-08-03T11:31:59.742Z,34.60
2022-08-03T11:34:27.843Z,34.60
2022-08-03T11:37:27.595Z,34.50
2022-08-03T11:39:58.083Z,34.40
2022-08-03T11:42:48.004Z,34.10
2022-08-03T11:45:16.259Z,33.70
2022-08-03T11:47:51.119Z,33.50
2022-08-03T11:50:21.333Z,33.60
2022-08-03T11:52:50.201Z,33.80
2022-08-03T11:55:21.618Z,34.10
2022-08-03T11:59:01.901Z,34.40
2022-08-03T12:00:38.044Z,34.60
2022-08-03T12:03:10.555Z,34.90
2022-08-03T12:05:51.325Z,34.90
2022-08-03T12:08:31.386Z,34.90
2022-08-03T12:11:02.024Z,34.90
2022-08-03T12:14:28.932Z,34.90
2022-08-03T12:16:28.634Z,35.00
2022-08-03T12:18:59.619Z,34.90
2022-08-03T12:21:28.707Z,34.70
2022-08-03T12:24:00.579Z,34.60
2022-08-03T12:26:29.404Z,34.60
2022-08-03T12:28:57.733Z,34.50
2022-08-03T12:31:26.022Z,34.40
2022-08-03T12:34:00.336Z,34.30
2022-08-03T12:36:28.945Z,34.20
2022-08-03T12:38:58.703Z,34.40
2022-08-03T12:41:34.169Z,34.50
2022-08-03T12:44:04.312Z,34.80
2022-08-03T12:46:34.824Z,34.90
2022-08-03T12:49:09.637Z,34.80
2022-08-03T12:51:39.947Z,34.50
2022-08-03T12:54:07.960Z,34.40
2022-08-03T12:56:35.998Z,34.50
2022-08-03T12:59:24.856Z,34.50
2022-08-03T13:02:01.189Z,34.40
2022-08-03T13:04:35.425Z,34.40
2022-08-03T13:07:05.213Z,34.40
2022-08-03T13:09:43.140Z,34.40
2022-08-03T13:12:13.468Z,34.40
2022-08-03T13:14:57.488Z,34.50
2022-08-03T13:17:25.701Z,34.60
2022-08-03T13:19:55.110Z,34.70
2022-08-03T13:22:24.982Z,34.90
2022-08-03T13:24:55.839Z,34.90
2022-08-03T13:28:03.287Z,35.00
2022-08-03T13:30:13.060Z,35.00
2022-08-03T13:32:41.435Z,35.00
2022-08-03T13:35:11.549Z,34.90
2022-08-03T13:37:44.580Z,34.90
2022-08-03T13:40:17.012Z,34.90
2022-08-03T13:42:45.111Z,34.90
2022-08-03T13:45:13.108Z,34.70
2022-08-03T13:47:41.190Z,34.60
2022-08-03T13:50:10.665Z,34.50
2022-08-03T13:52:38.652Z,34.50
2022-08-03T13:55:08.078Z,34.50
2022-08-03T13:58:06.215Z,34.50
2022-08-03T14:00:27.595Z,34.50
2022-08-03T14:03:09.225Z,34.50
2022-08-03T14:05:42.634Z,34.40
2022-08-03T14:08:11.181Z,34.50
2022-08-03T14:10:42.453Z,34.50
2022-08-03T14:13:12.683Z,34.50
2022-08-03T14:15:49.703Z,34.50
2022-08-03T14:18:28.750Z,34.30
2022-08-03T14:21:06.303Z,34.20
2022-08-03T14:23:35.640Z,34.10
2022-08-03T14:26:03.676Z,34.10
2022-08-03T14:28:31.909Z,34.10
2022-08-03T14:30:59.896Z,34.10
2022-08-03T14:33:28.349Z,34.10
2022-08-03T14:35:56.556Z,34.00
2022-08-03T14:38:26.700Z,34.00
2022-08-03T14:40:54.818Z,33.80
2022-08-03T14:43:23.008Z,33.80
2022-08-03T14:45:52.420Z,33.70
2022-08-03T14:49:02.673Z,33.70
2022-08-03T14:51:09.355Z,33.80
2022-08-03T14:53:38.643Z,33.80
2022-08-03T14:56:10.472Z,33.80
2022-08-03T14:58:38.869Z,33.80
2022-08-03T15:02:05.033Z,33.70
2022-08-03T15:03:55.721Z,33.70
2022-08-03T15:06:23.674Z,33.60
2022-08-03T15:09:22.471Z,33.60
2022-08-03T15:11:41.173Z,33.60
2022-08-03T15:14:09.673Z,33.60
2022-08-03T15:16:38.010Z,33.50
2022-08-03T15:20:03.860Z,33.50
2022-08-03T15:21:54.068Z,33.50
2022-08-03T15:24:23.397Z,33.50
2022-08-03T15:26:52.135Z,33.50
2022-08-03T15:30:05.129Z,33.40
2022-08-03T15:32:09.647Z,33.40
2022-08-03T15:34:37.802Z,33.40
2022-08-03T15:37:12.759Z,33.40
2022-08-03T15:39:58.922Z,33.40
2022-08-03T15:42:29.802Z,33.50
2022-08-03T15:44:57.799Z,33.50
2022-08-03T15:47:25.787Z,33.60
2022-08-03T15:49:53.845Z,33.60
2022-08-03T15:52:21.774Z,33.50
2022-08-03T15:54:51.090Z,33.50
2022-08-03T15:57:19.377Z,33.40
2022-08-03T15:59:47.609Z,33.40
2022-08-03T16:02:15.927Z,33.40
2022-08-03T16:04:43.857Z,33.40
2022-08-03T16:07:12.818Z,33.30
2022-08-03T16:09:42.866Z,33.20
2022-08-03T16:12:16.272Z,33.20
2022-08-03T16:14:53.245Z,33.10
2022-08-03T16:17:22.450Z,33.10
2022-08-03T16:19:50.834Z,33.10
2022-08-03T16:22:22.183Z,33.10
2022-08-03T16:24:51.090Z,33.20
2022-08-03T16:27:56.486Z,33.10
2022-08-03T16:30:11.197Z,33.20
2022-08-03T16:32:39.845Z,33.10
2022-08-03T16:35:08.757Z,33.10
2022-08-03T16:37:38.580Z,33.00
2022-08-03T16:40:17.390Z,33.00
2022-08-03T16:42:48.753Z,33.00
2022-08-03T16:45:16.732Z,33.00
2022-08-03T16:47:44.780Z,32.90
2022-08-03T16:50:17.517Z,32.80
2022-08-03T16:52:48.456Z,32.80
2022-08-03T16:55:28.585Z,32.70
2022-08-03T16:58:07.448Z,32.60
2022-08-03T17:00:41.497Z,32.60
2022-08-03T17:03:12.535Z,32.50
2022-08-03T17:05:49.524Z,32.50
2022-08-03T17:08:26.084Z,32.40
2022-08-03T17:10:55.637Z,32.40
2022-08-03T17:13:33.028Z,32.40
2022-08-03T17:16:09.659Z,32.40
2022-08-03T17:18:42.175Z,32.30
2022-08-03T17:21:18.316Z,32.20
2022-08-03T17:23:53.355Z,32.20
2022-08-03T17:26:23.955Z,32.20
2022-08-03T17:29:12.536Z,32.10
2022-08-03T17:31:49.138Z,32.10
2022-08-03T17:34:18.891Z,32.00
2022-08-03T17:37:03.870Z,32.00
2022-08-03T17:39:57.556Z,31.90
2022-08-03T17:42:29.528Z,31.80
2022-08-03T17:45:03.918Z,31.80
2022-08-03T17:47:41.107Z,31.80
2022-08-03T17:50:24.855Z,31.70
2022-08-03T17:53:01.086Z,31.70
2022-08-03T17:55:57.180Z,31.60
2022-08-03T17:58:33.441Z,31.60
2022-08-03T18:01:58.318Z,31.60
2022-08-03T18:04:12.629Z,31.50
2022-08-03T18:06:56.425Z,31.50
2022-08-03T18:10:06.521Z,31.50
2022-08-03T18:12:26.932Z,31.50
2022-08-03T18:15:01.600Z,31.40
2022-08-03T18:17:55.496Z,31.30
2022-08-03T18:23:24.940Z,31.30
2022-08-03T18:26:07.712Z,31.20
2022-08-03T18:28:41.421Z,31.10
2022-08-03T18:31:11.930Z,31.10
2022-08-03T18:34:32.428Z,31.00
2022-08-03T18:36:32.814Z,31.00
2022-08-03T18:39:03.250Z,30.90
2022-08-03T18:41:34.686Z,30.80
2022-08-03T18:44:09.624Z,30.70
2022-08-03T18:47:07.147Z,30.70
2022-08-03T18:49:45.203Z,30.60
2022-08-03T18:52:19.408Z,30.50
2022-08-03T18:55:02.298Z,30.40
2022-08-03T18:57:43.056Z,30.30
2022-08-03T19:00:15.521Z,30.30
2022-08-03T19:02:50.014Z,30.20
2022-08-03T19:05:21.742Z,30.10
2022-08-03T19:07:59.987Z,30.00
2022-08-03T19:10:34.106Z,29.80
2022-08-03T19:13:11.341Z,29.70
2022-08-03T19:15:51.249Z,29.60
2022-08-03T19:18:21.314Z,29.40
2022-08-03T19:20:55.828Z,29.30
2022-08-03T19:23:25.842Z,29.20
2022-08-03T19:25:54.331Z,29.10
2022-08-03T19:28:29.748Z,29.00
2022-08-03T19:30:59.418Z,28.90
2022-08-03T19:33:55.682Z,28.70
2022-08-03T19:36:27.448Z,28.50
2022-08-03T19:38:57.905Z,28.40
2022-08-03T19:41:42.010Z,28.20
2022-08-03T19:44:11.805Z,28.10
2022-08-03T19:46:47.675Z,28.00
2022-08-03T19:49:17.251Z,27.80
2022-08-03T19:51:58.479Z,27.70
2022-08-03T19:54:39.676Z,27.60
2022-08-03T19:57:18.627Z,27.50
2022-08-03T19:59:49.881Z,27.50
2022-08-03T20:02:26.966Z,27.30
2022-08-03T20:04:56.539Z,27.20
2022-08-03T20:07:26.022Z,27.10
2022-08-03T20:09:56.522Z,27.00
2022-08-03T20:12:27.653Z,26.80
2022-08-03T20:14:57.198Z,26.70
2022-08-03T20:17:54.570Z,26.70
2022-08-03T20:20:14.229Z,26.60
2022-08-03T20:22:48.062Z,26.50
2022-08-03T20:25:20.926Z,26.50
2022-08-03T20:28:06.739Z,26.40
2022-08-03T20:30:36.522Z,26.30
2022-08-03T20:33:05.766Z,26.20
2022-08-03T20:35:34.293Z,26.10
2022-08-03T20:38:03.620Z,26.00
2022-08-03T20:40:31.676Z,25.90
2022-08-03T20:43:01.536Z,25.80
2022-08-03T20:46:00.915Z,25.70
2022-08-03T20:48:22.150Z,25.60
2022-08-03T20:50:50.991Z,25.50
2022-08-03T20:53:57.329Z,25.40
2022-08-03T20:56:10.609Z,25.30
2022-08-03T20:58:50.479Z,25.30
2022-08-03T21:01:27.863Z,25.20
2022-08-03T21:04:04.538Z,25.20
2022-08-03T21:06:37.611Z,25.10
2022-08-03T21:09:07.731Z,25.00
2022-08-03T21:11:42.145Z,24.90
2022-08-03T21:12:57.650Z,31.30
2022-08-03T21:14:14.791Z,24.80
2022-08-03T21:16:46.186Z,24.70
2022-08-03T21:19:16.868Z,24.60
2022-08-03T21:21:47.766Z,24.50
2022-08-03T21:24:19.029Z,24.50
2022-08-03T21:26:49.661Z,24.40
2022-08-03T21:29:18.467Z,24.40
2022-08-03T21:31:47.608Z,24.40
2022-08-03T21:34:16.381Z,24.30
2022-08-03T21:36:44.782Z,24.30
2022-08-03T21:39:12.972Z,24.20
2022-08-03T21:41:42.407Z,24.20
2022-08-03T21:44:10.499Z,24.20
2022-08-03T21:46:40.893Z,24.20
2022-08-03T21:50:05.756Z,24.20
2022-08-03T21:52:05.080Z,24.10
2022-08-03T21:54:38.765Z,24.10
2022-08-03T21:57:18.243Z,23.90
2022-08-03T21:59:53.170Z,23.80
2022-08-03T22:02:24.531Z,23.70
2022-08-03T22:04:57.035Z,23.60
2022-08-03T22:07:26.907Z,23.60
2022-08-03T22:09:56.336Z,23.50
2022-08-03T22:12:27.550Z,23.50
2022-08-03T22:15:01.290Z,23.40
2022-08-03T22:17:55.758Z,23.30
2022-08-03T22:20:22.545Z,23.20
2022-08-03T22:22:56.068Z,23.20
2022-08-03T22:25:28.708Z,23.10
2022-08-03T22:27:59.641Z,23.10
2022-08-03T22:30:27.866Z,23.10
2022-08-03T22:32:57.493Z,23.10
2022-08-03T22:35:28.066Z,23.20
2022-08-03T22:37:58.149Z,23.20
2022-08-03T22:40:27.446Z,23.30
2022-08-03T22:42:55.839Z,23.20
2022-08-03T22:46:07.036Z,23.20
2022-08-03T22:48:14.526Z,23.10
2022-08-03T22:50:45.027Z,22.90
2022-08-03T22:53:17.271Z,22.80
2022-08-03T22:55:45.523Z,22.80
2022-08-03T22:58:16.513Z,22.80
2022-08-03T23:00:53.807Z,22.70
2022-08-03T23:03:24.820Z,22.70
2022-08-03T23:06:02.103Z,22.70
2022-08-03T23:08:33.892Z,22.70
2022-08-03T23:11:08.559Z,22.70
2022-08-03T23:13:39.698Z,22.70
2022-08-03T23:16:10.489Z,22.60
2022-08-03T23:18:43.344Z,22.50
2022-08-03T23:21:12.727Z,22.50
2022-08-03T23:23:44.298Z,22.40
2022-08-03T23:26:13.869Z,22.40
2022-08-03T23:28:46.269Z,22.40
2022-08-03T23:31:16.639Z,22.40
2022-08-03T23:33:46.579Z,22.40
2022-08-03T23:36:30.199Z,22.40
2022-08-03T23:39:03.035Z,22.40
2022-08-03T23:41:31.261Z,22.30
2022-08-03T23:44:01.880Z,22.30
2022-08-03T23:46:34.118Z,22.30
2022-08-03T23:49:02.206Z,22.20
2022-08-03T23:51:42.855Z,22.20
2022-08-03T23:54:22.192Z,22.10
2022-08-03T23:56:57.635Z,22.20
2022-08-03T23:59:39.370Z,22.10
